sensor_id;sensor_type;location;lat;lon;timestamp;pressure;altitude;pressure_sealevel;temperature;humidity
58967;BME280;44744;51.894;5.080;2023-04-10T00:00:53;102188.23;;;9.95;76.69
58967;BME280;44744;51.894;5.080;2023-04-10T00:01:53;102186.84;;;9.94;76.97
58967;BME280;44744;51.894;5.080;2023-04-10T00:02:53;102187.23;;;9.93;77.12
58967;BME280;44744;51.894;5.080;2023-04-10T00:03:53;102182.89;;;9.90;77.16
58967;BME280;44744;51.894;5.080;2023-04-10T00:04:54;102180.09;;;9.89;77.25
58967;BME280;44744;51.894;5.080;2023-04-10T00:05:54;102179.12;;;9.86;77.18
58967;BME280;44744;51.894;5.080;2023-04-10T00:06:55;102179.16;;;9.85;77.46
58967;BME280;44744;51.894;5.080;2023-04-10T00:07:55;102177.08;;;9.84;77.42
58967;BME280;44744;51.894;5.080;2023-04-10T00:08:55;102171.48;;;9.82;77.63
58967;BME280;44744;51.894;5.080;2023-04-10T00:09:56;102174.17;;;9.81;77.44
58967;BME280;44744;51.894;5.080;2023-04-10T00:10:56;102171.91;;;9.79;77.75
58967;BME280;44744;51.894;5.080;2023-04-10T00:11:56;102170.84;;;9.80;78.27
58967;BME280;44744;51.894;5.080;2023-04-10T00:12:57;102168.55;;;9.79;78.57
58967;BME280;44744;51.894;5.080;2023-04-10T00:13:58;102168.90;;;9.79;78.98
58967;BME280;44744;51.894;5.080;2023-04-10T00:14:58;102165.55;;;9.79;79.09
58967;BME280;44744;51.894;5.080;2023-04-10T00:15:58;102166.41;;;9.80;79.41
58967;BME280;44744;51.894;5.080;2023-04-10T00:16:59;102159.16;;;9.80;79.62
58967;BME280;44744;51.894;5.080;2023-04-10T00:17:59;102161.96;;;9.81;79.74
58967;BME280;44744;51.894;5.080;2023-04-10T00:18:59;102159.98;;;9.82;79.40
58967;BME280;44744;51.894;5.080;2023-04-10T00:19:59;102163.17;;;9.82;79.30
58967;BME280;44744;51.894;5.080;2023-04-10T00:21:01;102158.77;;;9.82;79.21
58967;BME280;44744;51.894;5.080;2023-04-10T00:22:03;102157.15;;;9.82;79.26
58967;BME280;44744;51.894;5.080;2023-04-10T00:23:06;102154.63;;;9.84;79.05
58967;BME280;44744;51.894;5.080;2023-04-10T00:24:06;102155.31;;;9.85;78.95
58967;BME280;44744;51.894;5.080;2023-04-10T00:25:07;102149.48;;;9.85;78.83
58967;BME280;44744;51.894;5.080;2023-04-10T00:26:08;102151.08;;;9.85;78.84
58967;BME280;44744;51.894;5.080;2023-04-10T00:27:08;102151.42;;;9.84;78.99
58967;BME280;44744;51.894;5.080;2023-04-10T00:28:08;102147.91;;;9.84;78.84
58967;BME280;44744;51.894;5.080;2023-04-10T00:29:08;102144.05;;;9.83;78.83
58967;BME280;44744;51.894;5.080;2023-04-10T00:30:09;102142.98;;;9.83;78.77
58967;BME280;44744;51.894;5.080;2023-04-10T00:31:09;102144.40;;;9.83;78.75
58967;BME280;44744;51.894;5.080;2023-04-10T00:32:09;102140.35;;;9.83;78.76
58967;BME280;44744;51.894;5.080;2023-04-10T00:33:10;102140.72;;;9.82;78.73
58967;BME280;44744;51.894;5.080;2023-04-10T00:34:10;102137.19;;;9.82;78.65
58967;BME280;44744;51.894;5.080;2023-04-10T00:35:12;102137.56;;;9.82;78.69
58967;BME280;44744;51.894;5.080;2023-04-10T00:36:12;102131.05;;;9.81;78.76
58967;BME280;44744;51.894;5.080;2023-04-10T00:37:12;102132.83;;;9.81;78.70
58967;BME280;44744;51.894;5.080;2023-04-10T00:38:13;102130.01;;;9.80;78.68
58967;BME280;44744;51.894;5.080;2023-04-10T00:39:13;102133.89;;;9.80;78.81
58967;BME280;44744;51.894;5.080;2023-04-10T00:40:14;102131.96;;;9.80;78.98
58967;BME280;44744;51.894;5.080;2023-04-10T00:41:15;102133.22;;;9.79;78.88
58967;BME280;44744;51.894;5.080;2023-04-10T00:42:15;102134.11;;;9.79;79.09
58967;BME280;44744;51.894;5.080;2023-04-10T00:43:19;102139.27;;;9.78;79.07
58967;BME280;44744;51.894;5.080;2023-04-10T00:44:19;102136.98;;;9.78;79.17
58967;BME280;44744;51.894;5.080;2023-04-10T00:45:20;102139.27;;;9.78;79.26
58967;BME280;44744;51.894;5.080;2023-04-10T00:46:20;102140.84;;;9.79;79.35
58967;BME280;44744;51.894;5.080;2023-04-10T00:47:20;102135.01;;;9.79;79.40
58967;BME280;44744;51.894;5.080;2023-04-10T00:48:21;102134.31;;;9.79;79.48
58967;BME280;44744;51.894;5.080;2023-04-10T00:49:21;102134.83;;;9.79;79.36
58967;BME280;44744;51.894;5.080;2023-04-10T00:50:22;102132.36;;;9.78;79.47
58967;BME280;44744;51.894;5.080;2023-04-10T00:51:22;102133.61;;;9.78;79.55
58967;BME280;44744;51.894;5.080;2023-04-10T00:52:23;102131.31;;;9.78;79.87
58967;BME280;44744;51.894;5.080;2023-04-10T00:53:24;102131.33;;;9.78;79.75
58967;BME280;44744;51.894;5.080;2023-04-10T00:54:25;102138.12;;;9.75;79.87
58967;BME280;44744;51.894;5.080;2023-04-10T00:55:25;102135.66;;;9.74;79.88
58967;BME280;44744;51.894;5.080;2023-04-10T00:56:26;102132.67;;;9.74;79.86
58967;BME280;44744;51.894;5.080;2023-04-10T00:57:27;102133.03;;;9.74;79.83
58967;BME280;44744;51.894;5.080;2023-04-10T00:58:28;102127.42;;;9.73;79.92
58967;BME280;44744;51.894;5.080;2023-04-10T00:59:28;102128.11;;;9.73;79.97
58967;BME280;44744;51.894;5.080;2023-04-10T01:00:28;102125.45;;;9.73;80.06
58967;BME280;44744;51.894;5.080;2023-04-10T01:01:29;102120.29;;;9.74;80.14
58967;BME280;44744;51.894;5.080;2023-04-10T01:02:29;102116.58;;;9.74;80.36
58967;BME280;44744;51.894;5.080;2023-04-10T01:03:29;102113.54;;;9.76;80.58
58967;BME280;44744;51.894;5.080;2023-04-10T01:04:30;102114.05;;;9.77;80.69
58967;BME280;44744;51.894;5.080;2023-04-10T01:05:38;102115.42;;;9.78;80.82
58967;BME280;44744;51.894;5.080;2023-04-10T01:08:32;102116.48;;;9.78;80.44
58967;BME280;44744;51.894;5.080;2023-04-10T01:11:21;102118.48;;;9.76;80.05
58967;BME280;44744;51.894;5.080;2023-04-10T01:13:27;102117.23;;;9.77;80.09
58967;BME280;44744;51.894;5.080;2023-04-10T01:15:06;102113.48;;;9.78;79.99
58967;BME280;44744;51.894;5.080;2023-04-10T01:16:19;102111.57;;;9.77;79.89
58967;BME280;44744;51.894;5.080;2023-04-10T01:20:22;102106.38;;;9.73;79.62
58967;BME280;44744;51.894;5.080;2023-04-10T01:21:25;102106.58;;;9.73;79.60
58967;BME280;44744;51.894;5.080;2023-04-10T01:26:30;102102.80;;;9.69;79.51
58967;BME280;44744;51.894;5.080;2023-04-10T01:29:25;102099.36;;;9.66;79.68
58967;BME280;44744;51.894;5.080;2023-04-10T01:30:26;102100.79;;;9.66;79.68
58967;BME280;44744;51.894;5.080;2023-04-10T01:31:38;102098.14;;;9.66;79.61
58967;BME280;44744;51.894;5.080;2023-04-10T01:32:41;102091.63;;;9.65;79.64
58967;BME280;44744;51.894;5.080;2023-04-10T01:33:47;102087.91;;;9.65;79.69
58967;BME280;44744;51.894;5.080;2023-04-10T01:34:50;102086.86;;;9.65;79.73
58967;BME280;44744;51.894;5.080;2023-04-10T01:35:53;102084.77;;;9.64;79.63
58967;BME280;44744;51.894;5.080;2023-04-10T01:36:59;102090.77;;;9.64;79.73
58967;BME280;44744;51.894;5.080;2023-04-10T01:38:02;102084.77;;;9.64;79.79
58967;BME280;44744;51.894;5.080;2023-04-10T01:39:04;102080.21;;;9.63;79.98
58967;BME280;44744;51.894;5.080;2023-04-10T01:40:09;102082.52;;;9.63;79.97
58967;BME280;44744;51.894;5.080;2023-04-10T01:41:10;102078.10;;;9.63;80.00
58967;BME280;44744;51.894;5.080;2023-04-10T01:42:13;102080.23;;;9.62;79.93
58967;BME280;44744;51.894;5.080;2023-04-10T01:43:16;102074.80;;;9.61;80.06
58967;BME280;44744;51.894;5.080;2023-04-10T01:44:20;102070.23;;;9.60;79.95
58967;BME280;44744;51.894;5.080;2023-04-10T01:45:27;102071.67;;;9.59;79.90
58967;BME280;44744;51.894;5.080;2023-04-10T01:46:28;102073.09;;;9.59;80.04
58967;BME280;44744;51.894;5.080;2023-04-10T01:47:29;102070.63;;;9.59;80.17
58967;BME280;44744;51.894;5.080;2023-04-10T01:48:30;102071.69;;;9.59;80.22
58967;BME280;44744;51.894;5.080;2023-04-10T01:49:31;102069.60;;;9.58;80.14
58967;BME280;44744;51.894;5.080;2023-04-10T01:50:38;102070.67;;;9.58;80.14
58967;BME280;44744;51.894;5.080;2023-04-10T01:51:41;102073.28;;;9.59;80.53
58967;BME280;44744;51.894;5.080;2023-04-10T01:52:43;102071.12;;;9.60;80.64
58967;BME280;44744;51.894;5.080;2023-04-10T01:53:44;102071.96;;;9.62;81.02
58967;BME280;44744;51.894;5.080;2023-04-10T01:54:46;102070.34;;;9.63;81.10
58967;BME280;44744;51.894;5.080;2023-04-10T01:55:49;102070.24;;;9.65;81.36
58967;BME280;44744;51.894;5.080;2023-04-10T01:56:49;102068.80;;;9.66;81.28
58967;BME280;44744;51.894;5.080;2023-04-10T01:57:50;102067.53;;;9.67;81.25
58967;BME280;44744;51.894;5.080;2023-04-10T01:58:51;102065.23;;;9.67;81.08
58967;BME280;44744;51.894;5.080;2023-04-10T01:59:51;102062.75;;;9.68;80.94
58967;BME280;44744;51.894;5.080;2023-04-10T02:00:51;102066.42;;;9.68;80.83
58967;BME280;44744;51.894;5.080;2023-04-10T02:01:59;102064.11;;;9.69;80.70
58967;BME280;44744;51.894;5.080;2023-04-10T02:02:59;102063.40;;;9.69;80.78
58967;BME280;44744;51.894;5.080;2023-04-10T02:04:00;102066.56;;;9.70;80.50
58967;BME280;44744;51.894;5.080;2023-04-10T02:05:01;102065.84;;;9.71;80.62
58967;BME280;44744;51.894;5.080;2023-04-10T02:06:17;102063.35;;;9.71;80.40
58967;BME280;44744;51.894;5.080;2023-04-10T02:07:24;102063.72;;;9.70;80.16
58967;BME280;44744;51.894;5.080;2023-04-10T02:08:36;102063.02;;;9.70;80.18
58967;BME280;44744;51.894;5.080;2023-04-10T02:09:57;102061.61;;;9.70;80.13
58967;BME280;44744;51.894;5.080;2023-04-10T02:11:04;102061.63;;;9.70;80.04
58967;BME280;44744;51.894;5.080;2023-04-10T02:12:15;102060.02;;;9.70;79.99
58967;BME280;44744;51.894;5.080;2023-04-10T02:13:18;102060.44;;;9.68;79.86
58967;BME280;44744;51.894;5.080;2023-04-10T02:14:21;102059.38;;;9.68;80.08
58967;BME280;44744;51.894;5.080;2023-04-10T02:15:22;102062.38;;;9.68;79.81
58967;BME280;44744;51.894;5.080;2023-04-10T02:16:23;102060.96;;;9.68;79.54
58967;BME280;44744;51.894;5.080;2023-04-10T02:17:28;102059.41;;;9.67;79.76
58967;BME280;44744;51.894;5.080;2023-04-10T02:18:30;102057.10;;;9.67;79.83
58967;BME280;44744;51.894;5.080;2023-04-10T02:19:33;102061.85;;;9.68;79.73
58967;BME280;44744;51.894;5.080;2023-04-10T02:20:34;102061.32;;;9.68;79.50
58967;BME280;44744;51.894;5.080;2023-04-10T02:21:35;102062.55;;;9.68;79.70
58967;BME280;44744;51.894;5.080;2023-04-10T02:22:36;102059.54;;;9.68;79.54
58967;BME280;44744;51.894;5.080;2023-04-10T02:23:36;102057.06;;;9.69;79.59
58967;BME280;44744;51.894;5.080;2023-04-10T02:24:37;102059.17;;;9.69;79.45
58967;BME280;44744;51.894;5.080;2023-04-10T02:25:37;102058.33;;;9.68;79.31
58967;BME280;44744;51.894;5.080;2023-04-10T02:26:47;102058.87;;;9.68;79.37
58967;BME280;44744;51.894;5.080;2023-04-10T02:27:48;102062.09;;;9.66;79.48
58967;BME280;44744;51.894;5.080;2023-04-10T02:28:48;102058.02;;;9.66;79.42
58967;BME280;44744;51.894;5.080;2023-04-10T02:29:48;102059.78;;;9.66;79.29
58967;BME280;44744;51.894;5.080;2023-04-10T02:30:49;102061.55;;;9.66;79.31
58967;BME280;44744;51.894;5.080;2023-04-10T02:31:49;102060.49;;;9.66;79.34
58967;BME280;44744;51.894;5.080;2023-04-10T02:32:49;102057.48;;;9.66;79.22
58967;BME280;44744;51.894;5.080;2023-04-10T02:33:49;102059.06;;;9.67;79.28
58967;BME280;44744;51.894;5.080;2023-04-10T02:34:50;102057.82;;;9.67;79.10
58967;BME280;44744;51.894;5.080;2023-04-10T02:35:50;102054.99;;;9.67;79.10
58967;BME280;44744;51.894;5.080;2023-04-10T02:36:50;102053.06;;;9.67;78.95
58967;BME280;44744;51.894;5.080;2023-04-10T02:37:51;102053.61;;;9.66;78.87
58967;BME280;44744;51.894;5.080;2023-04-10T02:38:51;102052.92;;;9.65;78.92
58967;BME280;44744;51.894;5.080;2023-04-10T02:39:52;102055.40;;;9.65;79.11
58967;BME280;44744;51.894;5.080;2023-04-10T02:40:52;102052.06;;;9.65;79.07
58967;BME280;44744;51.894;5.080;2023-04-10T02:41:54;102053.83;;;9.65;79.01
58967;BME280;44744;51.894;5.080;2023-04-10T02:42:55;102054.86;;;9.65;78.88
58967;BME280;44744;51.894;5.080;2023-04-10T02:43:55;102057.36;;;9.65;78.98
58967;BME280;44744;51.894;5.080;2023-04-10T02:44:55;102055.43;;;9.65;78.95
58967;BME280;44744;51.894;5.080;2023-04-10T02:45:56;102053.37;;;9.63;79.08
58967;BME280;44744;51.894;5.080;2023-04-10T02:46:56;102061.81;;;9.64;78.94
58967;BME280;44744;51.894;5.080;2023-04-10T02:47:56;102062.89;;;9.63;78.89
58967;BME280;44744;51.894;5.080;2023-04-10T02:48:56;102062.70;;;9.64;78.87
58967;BME280;44744;51.894;5.080;2023-04-10T02:49:57;102063.07;;;9.63;78.79
58967;BME280;44744;51.894;5.080;2023-04-10T02:50:57;102062.73;;;9.63;78.84
58967;BME280;44744;51.894;5.080;2023-04-10T02:51:57;102067.35;;;9.62;78.77
58967;BME280;44744;51.894;5.080;2023-04-10T02:52:58;102062.77;;;9.61;78.79
58967;BME280;44744;51.894;5.080;2023-04-10T02:53:58;102063.81;;;9.62;78.85
58967;BME280;44744;51.894;5.080;2023-04-10T02:54:58;102064.01;;;9.61;78.84
58967;BME280;44744;51.894;5.080;2023-04-10T02:56:00;102064.02;;;9.61;78.78
58967;BME280;44744;51.894;5.080;2023-04-10T02:57:00;102065.63;;;9.60;78.77
58967;BME280;44744;51.894;5.080;2023-04-10T02:58:00;102064.40;;;9.60;78.72
58967;BME280;44744;51.894;5.080;2023-04-10T02:59:01;102066.55;;;9.59;78.70
58967;BME280;44744;51.894;5.080;2023-04-10T03:00:02;102066.23;;;9.59;78.74
58967;BME280;44744;51.894;5.080;2023-04-10T03:01:04;102065.70;;;9.59;78.75
58967;BME280;44744;51.894;5.080;2023-04-10T03:02:04;102065.54;;;9.58;78.66
58967;BME280;44744;51.894;5.080;2023-04-10T03:03:05;102067.48;;;9.58;78.73
58967;BME280;44744;51.894;5.080;2023-04-10T03:04:08;102066.09;;;9.57;78.79
58967;BME280;44744;51.894;5.080;2023-04-10T03:05:08;102066.10;;;9.56;78.69
58967;BME280;44744;51.894;5.080;2023-04-10T03:06:09;102062.03;;;9.56;78.69
58967;BME280;44744;51.894;5.080;2023-04-10T03:07:09;102064.86;;;9.56;78.60
58967;BME280;44744;51.894;5.080;2023-04-10T03:08:09;102061.70;;;9.56;78.67
58967;BME280;44744;51.894;5.080;2023-04-10T03:09:10;102059.05;;;9.55;78.68
58967;BME280;44744;51.894;5.080;2023-04-10T03:10:10;102062.42;;;9.55;78.45
58967;BME280;44744;51.894;5.080;2023-04-10T03:11:10;102061.05;;;9.54;78.67
58967;BME280;44744;51.894;5.080;2023-04-10T03:12:11;102063.18;;;9.54;78.81
58967;BME280;44744;51.894;5.080;2023-04-10T03:13:11;102066.02;;;9.54;78.73
58967;BME280;44744;51.894;5.080;2023-04-10T03:14:11;102059.85;;;9.53;78.79
58967;BME280;44744;51.894;5.080;2023-04-10T03:15:11;102060.23;;;9.52;78.73
58967;BME280;44744;51.894;5.080;2023-04-10T03:16:12;102062.69;;;9.52;78.58
58967;BME280;44744;51.894;5.080;2023-04-10T03:17:12;102062.36;;;9.52;78.60
58967;BME280;44744;51.894;5.080;2023-04-10T03:18:12;102063.62;;;9.51;78.56
58967;BME280;44744;51.894;5.080;2023-04-10T03:19:13;102061.16;;;9.50;78.48
58967;BME280;44744;51.894;5.080;2023-04-10T03:20:14;102060.30;;;9.50;78.66
58967;BME280;44744;51.894;5.080;2023-04-10T03:21:14;102058.22;;;9.49;78.60
58967;BME280;44744;51.894;5.080;2023-04-10T03:22:15;102055.55;;;9.49;78.82
58967;BME280;44744;51.894;5.080;2023-04-10T03:23:15;102054.70;;;9.48;78.78
58967;BME280;44744;51.894;5.080;2023-04-10T03:24:15;102053.05;;;9.50;78.90
58967;BME280;44744;51.894;5.080;2023-04-10T03:25:16;102052.49;;;9.51;78.89
58967;BME280;44744;51.894;5.080;2023-04-10T03:26:16;102051.58;;;9.52;78.98
58967;BME280;44744;51.894;5.080;2023-04-10T03:27:16;102049.42;;;9.54;79.36
58967;BME280;44744;51.894;5.080;2023-04-10T03:28:16;102049.36;;;9.55;79.39
58967;BME280;44744;51.894;5.080;2023-04-10T03:29:17;102051.63;;;9.56;79.42
58967;BME280;44744;51.894;5.080;2023-04-10T03:30:17;102047.20;;;9.57;79.39
58967;BME280;44744;51.894;5.080;2023-04-10T03:31:17;102047.86;;;9.58;79.34
58967;BME280;44744;51.894;5.080;2023-04-10T03:32:19;102047.30;;;9.59;79.23
58967;BME280;44744;51.894;5.080;2023-04-10T03:33:19;102047.30;;;9.59;79.25
58967;BME280;44744;51.894;5.080;2023-04-10T03:34:20;102045.56;;;9.58;78.97
58967;BME280;44744;51.894;5.080;2023-04-10T03:35:21;102044.01;;;9.58;78.98
58967;BME280;44744;51.894;5.080;2023-04-10T03:36:21;102041.88;;;9.57;78.80
58967;BME280;44744;51.894;5.080;2023-04-10T03:37:24;102039.78;;;9.57;78.76
58967;BME280;44744;51.894;5.080;2023-04-10T03:38:24;102043.34;;;9.56;78.56
58967;BME280;44744;51.894;5.080;2023-04-10T03:39:24;102037.88;;;9.55;78.61
58967;BME280;44744;51.894;5.080;2023-04-10T03:40:24;102037.02;;;9.55;78.48
58967;BME280;44744;51.894;5.080;2023-04-10T03:41:25;102037.20;;;9.54;78.23
58967;BME280;44744;51.894;5.080;2023-04-10T03:42:25;102036.19;;;9.53;78.07
58967;BME280;44744;51.894;5.080;2023-04-10T03:43:25;102040.11;;;9.52;78.26
58967;BME280;44744;51.894;5.080;2023-04-10T03:44:26;102037.48;;;9.51;78.31
58967;BME280;44744;51.894;5.080;2023-04-10T03:45:26;102037.32;;;9.51;78.22
58967;BME280;44744;51.894;5.080;2023-04-10T03:46:26;102034.86;;;9.50;78.19
58967;BME280;44744;51.894;5.080;2023-04-10T03:47:26;102032.05;;;9.50;78.12
58967;BME280;44744;51.894;5.080;2023-04-10T03:48:27;102031.39;;;9.49;78.06
58967;BME280;44744;51.894;5.080;2023-04-10T03:49:27;102030.84;;;9.49;78.00
58967;BME280;44744;51.894;5.080;2023-04-10T03:50:27;102026.13;;;9.48;78.09
58967;BME280;44744;51.894;5.080;2023-04-10T03:51:28;102027.73;;;9.47;77.89
58967;BME280;44744;51.894;5.080;2023-04-10T03:52:28;102026.86;;;9.46;77.93
58967;BME280;44744;51.894;5.080;2023-04-10T03:53:28;102024.09;;;9.45;77.99
58967;BME280;44744;51.894;5.080;2023-04-10T03:54:28;102020.56;;;9.45;77.98
58967;BME280;44744;51.894;5.080;2023-04-10T03:55:29;102023.23;;;9.43;77.80
58967;BME280;44744;51.894;5.080;2023-04-10T03:56:29;102019.75;;;9.42;77.78
58967;BME280;44744;51.894;5.080;2023-04-10T03:57:29;102018.20;;;9.41;77.85
58967;BME280;44744;51.894;5.080;2023-04-10T03:58:29;102015.08;;;9.39;77.85
58967;BME280;44744;51.894;5.080;2023-04-10T03:59:30;102012.81;;;9.38;77.95
58967;BME280;44744;51.894;5.080;2023-04-10T04:00:30;102010.71;;;9.38;77.97
58967;BME280;44744;51.894;5.080;2023-04-10T04:01:31;102013.03;;;9.37;78.02
58967;BME280;44744;51.894;5.080;2023-04-10T04:02:31;102013.57;;;9.36;78.03
58967;BME280;44744;51.894;5.080;2023-04-10T04:03:32;102012.56;;;9.35;78.06
58967;BME280;44744;51.894;5.080;2023-04-10T04:04:32;102009.61;;;9.33;78.08
58967;BME280;44744;51.894;5.080;2023-04-10T04:05:32;102008.61;;;9.32;78.11
58967;BME280;44744;51.894;5.080;2023-04-10T04:06:33;102005.33;;;9.29;78.28
58967;BME280;44744;51.894;5.080;2023-04-10T04:07:33;102008.90;;;9.28;78.48
58967;BME280;44744;51.894;5.080;2023-04-10T04:08:33;102003.30;;;9.26;78.43
58967;BME280;44744;51.894;5.080;2023-04-10T04:09:33;102001.55;;;9.26;78.66
58967;BME280;44744;51.894;5.080;2023-04-10T04:10:34;102003.02;;;9.24;78.75
58967;BME280;44744;51.894;5.080;2023-04-10T04:11:34;102001.44;;;9.23;78.92
58967;BME280;44744;51.894;5.080;2023-04-10T04:12:34;101998.83;;;9.22;78.79
58967;BME280;44744;51.894;5.080;2023-04-10T04:13:34;101999.41;;;9.21;78.82
58967;BME280;44744;51.894;5.080;2023-04-10T04:14:35;101993.80;;;9.19;79.13
58967;BME280;44744;51.894;5.080;2023-04-10T04:15:35;101993.48;;;9.18;79.11
58967;BME280;44744;51.894;5.080;2023-04-10T04:16:35;101994.73;;;9.17;79.18
58967;BME280;44744;51.894;5.080;2023-04-10T04:17:36;101995.11;;;9.17;79.13
58967;BME280;44744;51.894;5.080;2023-04-10T04:18:37;101996.87;;;9.17;79.40
58967;BME280;44744;51.894;5.080;2023-04-10T04:19:37;101993.34;;;9.17;79.63
58967;BME280;44744;51.894;5.080;2023-04-10T04:20:38;101996.16;;;9.17;79.80
58967;BME280;44744;51.894;5.080;2023-04-10T04:21:38;101997.92;;;9.17;80.10
58967;BME280;44744;51.894;5.080;2023-04-10T04:22:38;101997.76;;;9.17;80.18
58967;BME280;44744;51.894;5.080;2023-04-10T04:23:38;101996.71;;;9.17;80.21
58967;BME280;44744;51.894;5.080;2023-04-10T04:24:39;101997.42;;;9.16;80.30
58967;BME280;44744;51.894;5.080;2023-04-10T04:25:39;102000.74;;;9.17;80.42
58967;BME280;44744;51.894;5.080;2023-04-10T04:26:39;101999.52;;;9.17;80.38
58967;BME280;44744;51.894;5.080;2023-04-10T04:27:40;101999.49;;;9.17;80.15
58967;BME280;44744;51.894;5.080;2023-04-10T04:28:40;101996.91;;;9.16;80.08
58967;BME280;44744;51.894;5.080;2023-04-10T04:29:40;101995.34;;;9.15;80.18
58967;BME280;44744;51.894;5.080;2023-04-10T04:30:40;101992.91;;;9.14;80.19
58967;BME280;44744;51.894;5.080;2023-04-10T04:31:41;101992.95;;;9.13;80.08
58967;BME280;44744;51.894;5.080;2023-04-10T04:32:41;101991.38;;;9.12;80.07
58967;BME280;44744;51.894;5.080;2023-04-10T04:33:41;101991.42;;;9.10;80.10
58967;BME280;44744;51.894;5.080;2023-04-10T04:34:42;101990.77;;;9.09;80.22
58967;BME280;44744;51.894;5.080;2023-04-10T04:35:42;101992.04;;;9.08;80.32
58967;BME280;44744;51.894;5.080;2023-04-10T04:36:42;101990.67;;;9.07;80.39
58967;BME280;44744;51.894;5.080;2023-04-10T04:37:42;101990.68;;;9.06;80.15
58967;BME280;44744;51.894;5.080;2023-04-10T04:38:43;101988.27;;;9.03;80.32
58967;BME280;44744;51.894;5.080;2023-04-10T04:39:43;101989.03;;;9.02;80.42
58967;BME280;44744;51.894;5.080;2023-04-10T04:40:43;101991.17;;;9.02;80.17
58967;BME280;44744;51.894;5.080;2023-04-10T04:41:43;101992.45;;;9.00;80.35
58967;BME280;44744;51.894;5.080;2023-04-10T04:42:44;101995.85;;;8.99;80.25
58967;BME280;44744;51.894;5.080;2023-04-10T04:43:44;101998.04;;;8.96;80.16
58967;BME280;44744;51.894;5.080;2023-04-10T04:44:44;101997.77;;;8.93;80.38
58967;BME280;44744;51.894;5.080;2023-04-10T04:45:44;101993.41;;;8.92;80.34
58967;BME280;44744;51.894;5.080;2023-04-10T04:46:45;101990.44;;;8.91;80.51
58967;BME280;44744;51.894;5.080;2023-04-10T04:47:45;101988.02;;;8.89;80.60
58967;BME280;44744;51.894;5.080;2023-04-10T04:48:46;101987.02;;;8.86;80.51
58967;BME280;44744;51.894;5.080;2023-04-10T04:49:46;101984.56;;;8.86;80.55
58967;BME280;44744;51.894;5.080;2023-04-10T04:50:46;101982.66;;;8.85;80.63
58967;BME280;44744;51.894;5.080;2023-04-10T04:51:46;101980.99;;;8.82;80.80
58967;BME280;44744;51.894;5.080;2023-04-10T04:52:47;101982.27;;;8.80;80.82
58967;BME280;44744;51.894;5.080;2023-04-10T04:53:47;101983.90;;;8.79;80.77
58967;BME280;44744;51.894;5.080;2023-04-10T04:54:47;101983.75;;;8.78;80.96
58967;BME280;44744;51.894;5.080;2023-04-10T04:55:47;101982.91;;;8.77;81.01
58967;BME280;44744;51.894;5.080;2023-04-10T04:56:48;101985.39;;;8.76;81.05
58967;BME280;44744;51.894;5.080;2023-04-10T04:57:48;101978.88;;;8.76;81.10
58967;BME280;44744;51.894;5.080;2023-04-10T04:58:48;101980.97;;;8.77;81.46
58967;BME280;44744;51.894;5.080;2023-04-10T04:59:48;101979.34;;;8.78;81.52
58967;BME280;44744;51.894;5.080;2023-04-10T05:00:52;101972.95;;;8.80;81.68
58967;BME280;44744;51.894;5.080;2023-04-10T05:01:52;101977.52;;;8.80;82.10
58967;BME280;44744;51.894;5.080;2023-04-10T05:02:52;101971.86;;;8.80;82.20
58967;BME280;44744;51.894;5.080;2023-04-10T05:03:53;101969.72;;;8.81;82.15
58967;BME280;44744;51.894;5.080;2023-04-10T05:04:53;101971.48;;;8.81;81.98
58967;BME280;44744;51.894;5.080;2023-04-10T05:05:54;101970.59;;;8.81;82.11
58967;BME280;44744;51.894;5.080;2023-04-10T05:06:54;101972.89;;;8.82;82.09
58967;BME280;44744;51.894;5.080;2023-04-10T05:07:54;101970.27;;;8.80;81.86
58967;BME280;44744;51.894;5.080;2023-04-10T05:08:54;101972.77;;;8.80;81.92
58967;BME280;44744;51.894;5.080;2023-04-10T05:09:55;101971.54;;;8.80;81.74
58967;BME280;44744;51.894;5.080;2023-04-10T05:10:55;101969.11;;;8.78;81.78
58967;BME280;44744;51.894;5.080;2023-04-10T05:11:55;101969.67;;;8.76;81.59
58967;BME280;44744;51.894;5.080;2023-04-10T05:12:55;101966.55;;;8.75;81.51
58967;BME280;44744;51.894;5.080;2023-04-10T05:13:57;101967.16;;;8.72;81.35
58967;BME280;44744;51.894;5.080;2023-04-10T05:14:57;101971.46;;;8.70;81.40
58967;BME280;44744;51.894;5.080;2023-04-10T05:15:57;101971.20;;;8.67;81.48
58967;BME280;44744;51.894;5.080;2023-04-10T05:16:58;101970.73;;;8.65;81.61
58967;BME280;44744;51.894;5.080;2023-04-10T05:17:58;101966.71;;;8.63;81.43
58967;BME280;44744;51.894;5.080;2023-04-10T05:18:58;101968.20;;;8.60;81.47
58967;BME280;44744;51.894;5.080;2023-04-10T05:19:58;101966.48;;;8.59;81.55
58967;BME280;44744;51.894;5.080;2023-04-10T05:20:59;101965.50;;;8.56;81.80
58967;BME280;44744;51.894;5.080;2023-04-10T05:21:59;101962.57;;;8.54;81.86
58967;BME280;44744;51.894;5.080;2023-04-10T05:22:59;101963.33;;;8.52;81.99
58967;BME280;44744;51.894;5.080;2023-04-10T05:23:59;101960.75;;;8.50;82.10
58967;BME280;44744;51.894;5.080;2023-04-10T05:25:00;101958.87;;;8.48;82.18
58967;BME280;44744;51.894;5.080;2023-04-10T05:26:00;101958.40;;;8.45;82.29
58967;BME280;44744;51.894;5.080;2023-04-10T05:27:00;101961.23;;;8.44;82.43
58967;BME280;44744;51.894;5.080;2023-04-10T05:28:00;101961.45;;;8.43;82.54
58967;BME280;44744;51.894;5.080;2023-04-10T05:29:01;101960.26;;;8.41;82.61
58967;BME280;44744;51.894;5.080;2023-04-10T05:30:01;101963.46;;;8.40;82.79
58967;BME280;44744;51.894;5.080;2023-04-10T05:31:02;101961.21;;;8.38;83.09
58967;BME280;44744;51.894;5.080;2023-04-10T05:32:02;101961.22;;;8.38;83.26
58967;BME280;44744;51.894;5.080;2023-04-10T05:33:02;101964.20;;;8.39;83.72
58967;BME280;44744;51.894;5.080;2023-04-10T05:34:03;101961.73;;;8.39;83.97
58967;BME280;44744;51.894;5.080;2023-04-10T05:35:03;101963.80;;;8.40;84.18
58967;BME280;44744;51.894;5.080;2023-04-10T05:36:04;101961.34;;;8.40;84.44
58967;BME280;44744;51.894;5.080;2023-04-10T05:37:04;101965.54;;;8.41;84.61
58967;BME280;44744;51.894;5.080;2023-04-10T05:38:04;101964.65;;;8.42;84.55